createdAt,value
2023-01-13T00:00:50.311Z,63.72
2023-01-13T00:05:52.030Z,63.65
2023-01-13T00:10:53.890Z,63.32
2023-01-13T00:16:17.066Z,62.81
2023-01-13T00:21:24.368Z,62.88
2023-01-13T00:26:30.819Z,62.86
2023-01-13T00:31:32.682Z,62.98
2023-01-13T00:36:34.466Z,62.68
2023-01-13T00:41:55.127Z,62.88
2023-01-13T00:46:56.926Z,62.81
2023-01-13T00:52:01.398Z,62.66
2023-01-13T00:57:04.655Z,62.76
2023-01-13T01:02:06.537Z,62.47
2023-01-13T01:07:08.492Z,62.34
2023-01-13T01:12:10.220Z,62.50
2023-01-13T01:17:11.930Z,62.45
2023-01-13T01:22:13.633Z,63.06
2023-01-13T01:27:15.413Z,63.18
2023-01-13T01:32:17.143Z,63.32
2023-01-13T01:37:18.910Z,63.08
2023-01-13T01:42:39.120Z,63.34
2023-01-13T01:47:42.539Z,63.25
2023-01-13T01:52:50.213Z,63.06
2023-01-13T01:57:55.828Z,63.06
2023-01-13T02:02:59.383Z,63.44
2023-01-13T02:08:01.894Z,63.81
2023-01-13T02:13:08.345Z,63.74
2023-01-13T02:18:38.036Z,64.00
2023-01-13T02:24:02.941Z,63.86
2023-01-13T02:30:00.690Z,63.50
2023-01-13T02:35:20.817Z,62.95
2023-01-13T02:40:32.487Z,63.23
2023-01-13T02:45:47.341Z,62.94
2023-01-13T02:50:59.907Z,63.44
2023-01-13T02:56:03.574Z,63.38
2023-01-13T03:01:05.514Z,63.43
2023-01-13T03:06:29.989Z,63.48
2023-01-13T03:11:45.324Z,63.60
2023-01-13T03:17:07.162Z,63.41
2023-01-13T03:22:14.681Z,63.64
2023-01-13T03:27:37.020Z,63.70
2023-01-13T03:32:55.244Z,64.87
2023-01-13T03:38:05.716Z,65.31
2023-01-13T03:43:31.341Z,65.88
2023-01-13T03:48:36.094Z,66.92
2023-01-13T03:53:47.006Z,65.65
2023-01-13T03:58:49.315Z,67.22
2023-01-13T04:03:54.907Z,66.21
2023-01-13T04:09:06.572Z,66.35
2023-01-13T04:14:11.549Z,66.74
2023-01-13T04:19:15.861Z,67.13
2023-01-13T04:24:17.470Z,66.84
2023-01-13T04:29:19.039Z,66.81
2023-01-13T04:34:20.825Z,66.06
2023-01-13T04:39:22.431Z,65.88
2023-01-13T04:44:24.054Z,65.91
2023-01-13T04:49:25.740Z,66.42
2023-01-13T04:54:29.696Z,66.41
2023-01-13T04:59:32.799Z,66.45
2023-01-13T05:04:36.403Z,66.46
2023-01-13T05:09:38.077Z,66.45
2023-01-13T05:14:58.079Z,66.50
2023-01-13T05:19:59.743Z,66.88
2023-01-13T05:25:20.103Z,66.82
2023-01-13T05:30:24.054Z,66.58
2023-01-13T05:35:26.051Z,66.31
2023-01-13T05:40:45.959Z,66.33
2023-01-13T05:45:51.362Z,66.02
2023-01-13T05:50:54.104Z,65.58
2023-01-13T05:55:56.515Z,65.70
2023-01-13T06:01:07.195Z,65.63
2023-01-13T06:06:10.026Z,65.62
2023-01-13T06:11:11.604Z,66.02
2023-01-13T06:16:13.352Z,65.96
2023-01-13T06:21:15.031Z,65.80
2023-01-13T06:26:20.574Z,65.54
2023-01-13T06:31:22.485Z,65.54
2023-01-13T06:36:30.042Z,65.44
2023-01-13T06:41:52.036Z,65.26
2023-01-13T06:46:53.705Z,65.61
2023-01-13T06:51:55.302Z,65.02
2023-01-13T06:57:00.052Z,64.70
2023-01-13T07:02:03.004Z,64.98
2023-01-13T07:07:04.794Z,64.42
2023-01-13T07:12:06.827Z,64.18
2023-01-13T07:17:08.427Z,64.66
2023-01-13T07:22:10.010Z,63.87
2023-01-13T07:27:11.660Z,63.45
2023-01-13T07:32:13.267Z,63.34
2023-01-13T07:37:14.883Z,63.18
2023-01-13T07:42:35.096Z,63.33
2023-01-13T07:47:36.723Z,63.11
2023-01-13T07:52:38.276Z,62.98
2023-01-13T07:57:39.871Z,63.20
2023-01-13T08:02:41.764Z,62.53
2023-01-13T08:07:43.367Z,62.64
2023-01-13T08:13:03.559Z,62.45
2023-01-13T08:18:05.169Z,62.00
2023-01-13T08:23:07.475Z,62.06
2023-01-13T08:28:09.242Z,61.87
2023-01-13T08:33:12.511Z,61.15
2023-01-13T08:38:14.166Z,60.98
2023-01-13T08:43:16.080Z,60.71
2023-01-13T08:48:17.660Z,60.40
2023-01-13T08:53:20.400Z,59.74
2023-01-13T08:58:21.986Z,59.80
2023-01-13T09:03:23.571Z,59.85
2023-01-13T09:08:25.177Z,59.43
2023-01-13T09:13:26.815Z,58.67
2023-01-13T09:18:28.398Z,58.59
2023-01-13T09:23:29.997Z,59.12
2023-01-13T09:28:32.638Z,58.33
2023-01-13T09:33:52.821Z,58.25
2023-01-13T09:38:54.465Z,58.12
2023-01-13T09:43:59.401Z,57.97
2023-01-13T09:49:03.723Z,57.48
2023-01-13T09:54:28.337Z,57.03
2023-01-13T09:59:34.728Z,56.47
2023-01-13T10:04:36.438Z,56.56
2023-01-13T10:09:52.800Z,55.56
2023-01-13T10:14:57.647Z,54.88
2023-01-13T10:20:17.745Z,54.09
2023-01-13T10:25:25.176Z,55.31
2023-01-13T10:30:33.681Z,55.51
2023-01-13T10:35:53.692Z,55.27
2023-01-13T10:40:55.271Z,55.43
2023-01-13T10:46:07.694Z,55.73
2023-01-13T10:51:20.366Z,54.97
2023-01-13T10:56:26.544Z,55.35
2023-01-13T11:01:30.443Z,55.01
2023-01-13T11:06:34.465Z,54.41
2023-01-13T11:11:44.929Z,54.19
2023-01-13T11:16:54.113Z,53.45
2023-01-13T11:22:11.077Z,51.01
2023-01-13T11:27:27.776Z,52.24
2023-01-13T11:32:36.844Z,52.21
2023-01-13T11:37:43.489Z,52.09
2023-01-13T11:43:02.954Z,51.59
2023-01-13T11:48:05.008Z,51.66
2023-01-13T11:53:42.530Z,50.87
2023-01-13T11:59:11.912Z,51.03
2023-01-13T12:04:41.664Z,51.00
2023-01-13T12:10:26.164Z,52.17
2023-01-13T12:16:09.928Z,50.46
2023-01-13T12:21:36.885Z,50.55
2023-01-13T12:26:43.885Z,50.13
2023-01-13T12:31:50.261Z,50.73
2023-01-13T12:37:33.468Z,50.55
2023-01-13T12:43:09.960Z,51.08
2023-01-13T12:48:46.445Z,49.98
2023-01-13T12:53:48.195Z,51.46
2023-01-13T12:58:49.758Z,53.00
2023-01-13T13:04:18.791Z,54.64
2023-01-13T13:09:26.647Z,56.38
2023-01-13T13:14:37.459Z,57.03
2023-01-13T13:19:39.051Z,56.13
2023-01-13T13:24:42.283Z,56.35
2023-01-13T13:30:04.757Z,56.40
2023-01-13T13:35:31.317Z,56.51
2023-01-13T13:40:59.503Z,57.75
2023-01-13T13:46:20.272Z,57.75
2023-01-13T13:51:39.101Z,58.19
2023-01-13T13:56:45.304Z,57.75
2023-01-13T14:01:53.716Z,57.27
2023-01-13T14:06:58.799Z,57.26
2023-01-13T14:12:08.770Z,57.56
2023-01-13T14:17:22.454Z,58.07
2023-01-13T14:22:24.426Z,58.04
2023-01-13T14:27:27.835Z,58.36
2023-01-13T14:32:36.638Z,58.77
2023-01-13T14:37:43.495Z,59.50
2023-01-13T14:42:45.079Z,59.39
2023-01-13T14:47:52.799Z,59.17
2023-01-13T14:53:00.396Z,58.33
2023-01-13T14:58:20.410Z,57.40
2023-01-13T15:03:22.067Z,57.83
2023-01-13T15:08:29.594Z,58.01
2023-01-13T15:13:35.588Z,58.36
2023-01-13T15:18:40.117Z,58.61
2023-01-13T15:23:42.112Z,58.45
2023-01-13T15:28:43.785Z,58.51
2023-01-13T15:33:45.639Z,58.46
2023-01-13T15:38:47.320Z,58.84
2023-01-13T15:44:08.169Z,59.11
2023-01-13T15:49:25.255Z,59.78
2023-01-13T15:54:26.828Z,59.67
2023-01-13T15:59:28.499Z,59.44
2023-01-13T16:04:30.094Z,59.34
2023-01-13T16:09:31.685Z,59.18
2023-01-13T16:14:33.514Z,58.95
2023-01-13T16:19:35.099Z,58.47
2023-01-13T16:24:36.793Z,58.23
2023-01-13T16:29:38.389Z,58.00
2023-01-13T16:34:41.185Z,57.70
2023-01-13T16:39:44.304Z,58.01
2023-01-13T16:44:48.379Z,58.10
2023-01-13T16:49:50.033Z,58.00
2023-01-13T16:54:51.636Z,57.67
2023-01-13T16:59:53.219Z,57.95
2023-01-13T17:04:54.827Z,58.02
2023-01-13T17:09:56.571Z,57.95
2023-01-13T17:14:58.153Z,57.96
2023-01-13T17:20:00.043Z,58.16
2023-01-13T17:25:01.655Z,58.31
2023-01-13T17:30:03.413Z,58.82
2023-01-13T17:35:06.035Z,58.69
2023-01-13T17:40:08.149Z,58.90
2023-01-13T17:45:12.107Z,59.32
2023-01-13T17:50:13.710Z,59.27
2023-01-13T17:55:15.347Z,58.98
2023-01-13T18:00:17.269Z,59.13
2023-01-13T18:05:18.938Z,58.99
2023-01-13T18:10:21.199Z,58.70
2023-01-13T18:15:22.934Z,58.73
2023-01-13T18:20:43.121Z,58.83
2023-01-13T18:26:05.075Z,58.82
2023-01-13T18:31:08.802Z,58.92
2023-01-13T18:36:10.809Z,59.05
2023-01-13T18:41:30.943Z,59.29
2023-01-13T18:46:32.612Z,59.18
2023-01-13T18:51:34.236Z,58.99
2023-01-13T18:56:35.893Z,59.27
2023-01-13T19:01:38.235Z,59.44
2023-01-13T19:06:40.374Z,59.49
2023-01-13T19:11:46.557Z,59.24
2023-01-13T19:16:48.224Z,59.16
2023-01-13T19:21:49.813Z,59.87
2023-01-13T19:26:51.903Z,61.21
2023-01-13T19:31:53.513Z,61.60
2023-01-13T19:36:55.592Z,62.54
2023-01-13T19:42:15.884Z,62.97
2023-01-13T19:47:18.192Z,63.19
2023-01-13T19:52:19.774Z,63.05
2023-01-13T19:57:22.522Z,63.19
2023-01-13T20:02:31.748Z,63.89
2023-01-13T20:07:35.042Z,63.48
2023-01-13T20:12:36.700Z,64.35
2023-01-13T20:17:38.518Z,64.09
2023-01-13T20:22:40.774Z,64.24
2023-01-13T20:27:42.890Z,64.00
2023-01-13T20:32:44.734Z,64.37
2023-01-13T20:37:46.337Z,65.23
2023-01-13T20:42:47.984Z,65.18
2023-01-13T20:47:49.581Z,65.36
2023-01-13T20:52:52.643Z,66.78
2023-01-13T20:57:54.235Z,67.15
2023-01-13T21:02:56.140Z,67.59
2023-01-13T21:07:57.832Z,68.18
2023-01-13T21:13:18.228Z,67.81
2023-01-13T21:18:38.627Z,67.70
2023-01-13T21:23:44.609Z,67.61
2023-01-13T21:28:46.632Z,67.65
2023-01-13T21:33:53.442Z,67.95
2023-01-13T21:38:57.494Z,67.97
2023-01-13T21:44:17.698Z,67.63
2023-01-13T21:49:19.290Z,68.25
2023-01-13T21:54:20.872Z,67.72
2023-01-13T21:59:22.477Z,67.20
2023-01-13T22:04:24.061Z,67.31
2023-01-13T22:09:25.787Z,67.37
2023-01-13T22:14:27.372Z,67.06
2023-01-13T22:19:30.457Z,66.59
2023-01-13T22:24:32.077Z,66.31
2023-01-13T22:29:34.021Z,66.30
2023-01-13T22:34:35.697Z,66.25
2023-01-13T22:39:37.434Z,66.00
2023-01-13T22:44:39.003Z,65.93
2023-01-13T22:49:42.145Z,65.89
2023-01-13T22:54:44.100Z,65.37
2023-01-13T22:59:45.748Z,65.35
2023-01-13T23:04:47.424Z,65.54
2023-01-13T23:09:49.069Z,65.53
2023-01-13T23:14:50.761Z,65.04
2023-01-13T23:19:52.476Z,65.26
2023-01-13T23:24:54.059Z,65.01
2023-01-13T23:29:56.167Z,65.26
2023-01-13T23:34:57.847Z,65.03
2023-01-13T23:39:59.438Z,65.14
2023-01-13T23:45:01.067Z,64.97
2023-01-13T23:50:02.659Z,64.75
2023-01-13T23:55:04.565Z,64.63
